Time,TemperatureF,DewpointF,PressureIn,WindDirection,WindDirectionDegrees,WindSpeedMPH,WindSpeedGustMPH,Humidity,HourlyPrecipIn,Conditions,Clouds,dailyrainin,SoftwareType,DateUTC
2013-05-29 00:02:00,58.5,30.9,29.32,NW,315,0.0,0.0,35,0.00,CLR,SCT,0.00,WeatherDisplay:10.37,2013-05-29 08:02:00,
2013-05-29 00:07:00,58.1,31.3,29.32,NW,315,0.0,0.0,36,0.00,CLR,SCT,0.00,WeatherDisplay:10.37,2013-05-29 08:07:00,
2013-05-29 00:12:00,57.7,30.9,29.32,NW,315,0.0,0.0,36,0.00,CLR,SCT,0.00,WeatherDisplay:10.37,2013-05-29 08:12:00,
2013-05-29 00:17:00,57.2,30.5,29.32,NW,315,0.0,0.0,36,0.00,CLR,SCT,0.00,WeatherDisplay:10.37,2013-05-29 08:17:00,
2013-05-29 00:22:00,56.8,30.8,29.32,NW,315,0.0,0.0,37,0.00,CLR,SCT,0.00,WeatherDisplay:10.37,2013-05-29 08:22:00,
2013-05-29 00:27:00,56.8,30.8,29.32,NW,315,0.0,0.0,37,0.00,CLR,SCT,0.00,WeatherDisplay:10.37,2013-05-29 08:27:00,
2013-05-29 00:32:00,56.7,31.3,29.32,NW,315,0.0,0.0,38,0.00,CLR,SCT,0.00,WeatherDisplay:10.37,2013-05-29 08:32:00,
2013-05-29 00:37:00,56.8,31.5,29.35,NW,315,0.0,0.0,38,0.00,CLR,SCT,0.00,WeatherDisplay:10.37,2013-05-29 08:37:00,
2013-05-29 00:42:00,57.0,31.6,29.35,NW,315,0.0,0.0,38,0.00,CLR,SCT,0.00,WeatherDisplay:10.37,2013-05-29 08:42:00,
2013-05-29 00:47:00,56.7,31.3,29.35,NW,315,0.0,0.0,38,0.00,CLR,SCT,0.00,WeatherDisplay:10.37,2013-05-29 08:47:00,
2013-05-29 00:52:00,56.5,31.2,29.32,NW,315,0.0,0.0,38,0.00,CLR,SCT,0.00,WeatherDisplay:10.37,2013-05-29 08:52:00,
2013-05-29 00:57:00,56.3,31.0,29.32,NW,315,0.0,0.0,38,0.00,CLR,SCT,0.00,WeatherDisplay:10.37,2013-05-29 08:57:00,
2013-05-29 01:02:00,55.8,31.2,29.32,NW,315,0.0,0.0,39,0.00,CLR,SCT,0.00,WeatherDisplay:10.37,2013-05-29 09:02:00,
2013-05-29 01:07:00,55.8,31.2,29.32,NW,315,0.0,0.0,39,0.00,CLR,SCT,0.00,WeatherDisplay:10.37,2013-05-29 09:07:00,
2013-05-29 01:12:00,55.9,30.7,29.32,NW,315,0.0,0.0,38,0.00,CLR,SCT,0.00,WeatherDisplay:10.37,2013-05-29 09:12:00,
2013-05-29 01:17:00,55.8,30.5,29.32,NW,315,0.0,0.0,38,0.00,CLR,SCT,0.00,WeatherDisplay:10.37,2013-05-29 09:17:00,
2013-05-29 01:22:00,55.8,31.2,29.32,NW,315,0.0,0.0,39,0.00,CLR,SCT,0.00,WeatherDisplay:10.37,2013-05-29 09:22:00,
2013-05-29 01:27:00,56.8,31.5,29.32,NW,315,0.0,0.0,38,0.00,CLR,SCT,0.00,WeatherDisplay:10.37,2013-05-29 09:27:00,
2013-05-29 01:32:00,56.8,31.5,29.32,NW,315,0.0,0.0,38,0.00,CLR,SCT,0.00,WeatherDisplay:10.37,2013-05-29 09:32:00,
2013-05-29 01:37:00,56.7,31.3,29.32,NW,315,0.0,0.0,38,0.00,CLR,SCT,0.00,WeatherDisplay:10.37,2013-05-29 09:37:00,
2013-05-29 01:42:00,56.3,31.0,29.32,NW,315,2.6,2.6,38,0.00,CLR,SCT,0.00,WeatherDisplay:10.37,2013-05-29 09:42:00,
2013-05-29 01:47:00,56.5,31.2,29.32,NW,315,3.1,0.0,38,0.00,CLR,SCT,0.00,WeatherDisplay:10.37,2013-05-29 09:47:00,
2013-05-29 01:52:00,56.1,31.5,29.32,NW,315,2.6,2.6,39,0.00,CLR,SCT,0.00,WeatherDisplay:10.37,2013-05-29 09:52:00,
2013-05-29 01:57:00,55.8,31.2,29.32,NW,315,3.5,3.5,39,0.00,CLR,SCT,0.00,WeatherDisplay:10.37,2013-05-29 09:57:00,
2013-05-29 02:02:00,56.7,32.6,29.32,NW,315,3.6,3.6,40,0.00,CLR,SCT,0.00,WeatherDisplay:10.37,2013-05-29 10:02:00,
2013-05-29 02:07:00,56.5,32.4,29.32,NW,315,3.5,3.5,40,0.00,CLR,SCT,0.00,WeatherDisplay:10.37,2013-05-29 10:07:00,
2013-05-29 02:12:00,56.1,32.1,29.32,NW,315,3.5,3.5,40,0.00,CLR,SCT,0.00,WeatherDisplay:10.37,2013-05-29 10:12:00,
2013-05-29 02:17:00,56.3,32.9,29.32,NW,315,2.3,2.3,41,0.00,CLR,SCT,0.00,WeatherDisplay:10.37,2013-05-29 10:17:00,
2013-05-29 02:22:00,56.8,34.6,29.32,NW,315,3.5,3.5,43,0.00,CLR,SCT,0.00,WeatherDisplay:10.37,2013-05-29 10:22:00,
2013-05-29 02:27:00,56.7,34.4,29.32,NW,315,0.0,0.0,43,0.00,CLR,SCT,0.00,WeatherDisplay:10.37,2013-05-29 10:27:00,
2013-05-29 02:32:00,56.7,34.4,29.32,NW,315,0.0,0.0,43,0.00,CLR,SCT,0.00,WeatherDisplay:10.37,2013-05-29 10:32:00,
2013-05-29 02:37:00,56.3,34.6,29.32,NW,315,0.0,0.0,44,0.00,CLR,SCT,0.00,WeatherDisplay:10.37,2013-05-29 10:37:00,
2013-05-29 02:42:00,56.1,35.1,29.32,NW,315,0.0,0.0,45,0.00,CLR,SCT,0.00,WeatherDisplay:10.37,2013-05-29 10:42:00,
2013-05-29 02:47:00,56.1,35.1,29.32,NW,315,0.0,0.0,45,0.00,CLR,SCT,0.00,WeatherDisplay:10.37,2013-05-29 10:47:00,
2013-05-29 02:52:00,55.8,35.3,29.32,NW,315,0.0,0.0,46,0.00,CLR,SCT,0.00,WeatherDisplay:10.37,2013-05-29 10:52:00,
2013-05-29 02:57:00,55.0,34.6,29.32,NW,315,0.0,0.0,46,0.00,CLR,SCT,0.00,WeatherDisplay:10.37,2013-05-29 10:57:00,
2013-05-29 03:02:00,54.0,34.2,29.32,NW,315,0.0,0.0,47,0.00,CLR,SCT,0.00,WeatherDisplay:10.37,2013-05-29 11:02:00,
2013-05-29 03:07:00,54.0,34.7,29.32,NW,315,0.0,0.0,48,0.00,CLR,SCT,0.00,WeatherDisplay:10.37,2013-05-29 11:07:00,
2013-05-29 03:12:00,54.7,34.8,29.32,NW,315,0.0,0.0,47,0.00,CLR,SCT,0.00,WeatherDisplay:10.37,2013-05-29 11:12:00,
2013-05-29 03:17:00,54.9,35.0,29.32,NW,315,0.0,0.0,47,0.00,CLR,SCT,0.00,WeatherDisplay:10.37,2013-05-29 11:17:00,
2013-05-29 03:22:00,54.9,35.0,29.29,NW,315,0.0,0.0,47,0.00,CLR,SCT,0.00,WeatherDisplay:10.37,2013-05-29 11:22:00,
2013-05-29 03:27:00,54.7,34.8,29.29,NW,315,3.1,0.0,47,0.00,CLR,SCT,0.00,WeatherDisplay:10.37,2013-05-29 11:27:00,
2013-05-29 03:32:00,54.0,34.2,29.29,NW,315,3.6,3.6,47,0.00,CLR,SCT,0.00,WeatherDisplay:10.37,2013-05-29 11:32:00,
2013-05-29 03:37:00,53.6,34.4,29.29,NW,315,3.6,3.6,48,0.00,CLR,SCT,0.00,WeatherDisplay:10.37,2013-05-29 11:37:00,
2013-05-29 03:42:00,53.1,34.4,29.29,NW,315,3.5,3.5,49,0.00,CLR,SCT,0.00,WeatherDisplay:10.37,2013-05-29 11:42:00,
2013-05-29 03:47:00,52.7,34.1,29.29,NW,315,3.6,3.6,49,0.00,CLR,SCT,0.00,WeatherDisplay:10.37,2013-05-29 11:47:00,
2013-05-29 03:52:00,52.3,34.2,29.29,NW,315,3.5,3.5,50,0.00,CLR,SCT,0.00,WeatherDisplay:10.37,2013-05-29 11:52:00,
2013-05-29 03:57:00,52.2,34.1,29.29,NW,315,3.5,3.5,50,0.00,CLR,SCT,0.00,WeatherDisplay:10.37,2013-05-29 11:57:00,
2013-05-29 04:02:00,51.6,34.1,29.32,NW,315,3.5,3.5,51,0.00,CLR,SCT,0.00,WeatherDisplay:10.37,2013-05-29 12:02:00,
2013-05-29 04:07:00,51.6,34.6,29.32,NW,315,3.5,3.5,52,0.00,CLR,SCT,0.00,WeatherDisplay:10.37,2013-05-29 12:07:00,
2013-05-29 04:12:00,51.8,34.2,29.32,NW,315,3.5,3.5,51,0.00,CLR,SCT,0.00,WeatherDisplay:10.37,2013-05-29 12:12:00,
2013-05-29 04:17:00,52.2,34.1,29.32,NW,315,3.5,3.5,50,0.00,CLR,SCT,0.00,WeatherDisplay:10.37,2013-05-29 12:17:00,
2013-05-29 04:22:00,52.2,34.1,29.32,NW,315,2.3,0.0,50,0.00,CLR,SCT,0.00,WeatherDisplay:10.37,2013-05-29 12:22:00,
2013-05-29 04:27:00,51.6,34.1,29.32,NW,315,0.0,0.0,51,0.00,CLR,SCT,0.00,WeatherDisplay:10.37,2013-05-29 12:27:00,
2013-05-29 04:32:00,51.3,33.7,29.32,NW,315,0.0,0.0,51,0.00,CLR,SCT,0.00,WeatherDisplay:10.37,2013-05-29 12:32:00,
2013-05-29 04:37:00,51.3,33.7,29.32,NW,315,0.0,0.0,51,0.00,CLR,SCT,0.00,WeatherDisplay:10.37,2013-05-29 12:37:00,
2013-05-29 04:42:00,51.4,34.4,29.32,NW,315,0.0,0.0,52,0.00,CLR,SCT,0.00,WeatherDisplay:10.37,2013-05-29 12:42:00,
2013-05-29 04:47:00,51.4,34.4,29.32,NW,315,0.0,0.0,52,0.00,CLR,SCT,0.00,WeatherDisplay:10.37,2013-05-29 12:47:00,
2013-05-29 04:52:00,51.3,33.7,29.32,NW,315,0.0,0.0,51,0.00,CLR,SCT,0.00,WeatherDisplay:10.37,2013-05-29 12:52:00,
2013-05-29 04:57:00,51.3,34.2,29.32,NW,315,0.0,0.0,52,0.00,CLR,SCT,0.00,WeatherDisplay:10.37,2013-05-29 12:57:00,
2013-05-29 05:02:00,51.6,34.1,29.32,NW,315,0.0,0.0,51,0.00,CLR,SCT,0.00,WeatherDisplay:10.37,2013-05-29 13:02:00,
2013-05-29 05:07:00,51.8,33.7,29.32,NW,315,0.0,0.0,50,0.00,CLR,SCT,0.00,WeatherDisplay:10.37,2013-05-29 13:07:00,
2013-05-29 05:12:00,52.0,33.4,29.32,NW,315,0.0,0.0,49,0.00,CLR,SCT,0.00,WeatherDisplay:10.37,2013-05-29 13:12:00,
2013-05-29 05:17:00,51.6,33.6,29.32,NW,315,0.0,0.0,50,0.00,CLR,SCT,0.00,WeatherDisplay:10.37,2013-05-29 13:17:00,
2013-05-29 05:22:00,51.8,33.2,29.32,NW,315,0.0,0.0,49,0.00,CLR,SCT,0.00,WeatherDisplay:10.37,2013-05-29 13:22:00,
2013-05-29 05:27:00,52.2,33.6,29.32,NW,315,0.0,0.0,49,0.00,CLR,SCT,0.00,WeatherDisplay:10.37,2013-05-29 13:27:00,
2013-05-29 05:32:00,51.6,33.1,29.32,NW,315,0.0,0.0,49,0.00,CLR,SCT,0.00,WeatherDisplay:10.37,2013-05-29 13:32:00,
2013-05-29 05:37:00,52.0,33.4,29.32,NW,315,0.0,0.0,49,0.00,CLR,SCT,0.00,WeatherDisplay:10.37,2013-05-29 13:37:00,
2013-05-29 05:42:00,51.6,33.6,29.32,NW,315,0.0,0.0,50,0.00,CLR,SCT,0.00,WeatherDisplay:10.37,2013-05-29 13:42:00,
2013-05-29 05:47:00,51.6,33.6,29.32,NW,315,0.0,0.0,50,0.00,CLR,SCT,0.00,WeatherDisplay:10.37,2013-05-29 13:47:00,
2013-05-29 05:52:00,51.3,33.7,29.32,NW,315,0.0,0.0,51,0.00,CLR,SCT,0.00,WeatherDisplay:10.37,2013-05-29 13:52:00,
2013-05-29 05:57:00,51.4,33.9,29.32,NW,315,0.0,0.0,51,0.00,CLR,SCT,0.00,WeatherDisplay:10.37,2013-05-29 13:57:00,
2013-05-29 06:02:00,51.1,33.6,29.32,NW,315,0.0,0.0,51,0.00,CLR,SCT,0.00,WeatherDisplay:10.37,2013-05-29 14:02:00,
2013-05-29 06:07:00,51.3,34.2,29.32,NW,315,0.0,0.0,52,0.00,CLR,SCT,0.00,WeatherDisplay:10.37,2013-05-29 14:07:00,
2013-05-29 06:13:00,51.4,34.4,29.32,NW,315,0.0,0.0,52,0.00,CLR,SCT,0.00,WeatherDisplay:10.37,2013-05-29 14:13:00,
2013-05-29 06:18:00,51.6,33.6,29.32,NW,315,0.0,0.0,50,0.00,CLR,SCT,0.00,WeatherDisplay:10.37,2013-05-29 14:18:00,
2013-05-29 06:23:00,51.8,33.2,29.32,NW,315,0.0,0.0,49,0.00,CLR,SCT,0.00,WeatherDisplay:10.37,2013-05-29 14:23:00,
2013-05-29 06:28:00,52.0,33.9,29.32,NW,315,0.0,0.0,50,0.00,CLR,SCT,0.00,WeatherDisplay:10.37,2013-05-29 14:28:00,
2013-05-29 06:33:00,52.9,33.7,29.32,NW,315,0.0,0.0,48,0.00,CLR,SCT,0.00,WeatherDisplay:10.37,2013-05-29 14:33:00,
2013-05-29 06:38:00,53.4,33.7,29.32,NW,315,0.0,0.0,47,0.00,CLR,SCT,0.00,WeatherDisplay:10.37,2013-05-29 14:38:00,
2013-05-29 06:43:00,54.0,33.6,29.32,NW,315,3.5,0.0,46,0.00,CLR,SCT,0.00,WeatherDisplay:10.37,2013-05-29 14:43:00,
2013-05-29 06:48:00,54.3,34.0,29.32,NW,315,4.6,4.6,46,0.00,CLR,SCT,0.00,WeatherDisplay:10.37,2013-05-29 14:48:00,
2013-05-29 06:53:00,54.5,34.1,29.32,NW,315,4.6,4.6,46,0.00,CLR,SCT,0.00,WeatherDisplay:10.37,2013-05-29 14:53:00,
2013-05-29 06:58:00,54.7,34.3,29.32,NW,315,2.6,2.6,46,0.00,CLR,SCT,0.00,WeatherDisplay:10.37,2013-05-29 14:58:00,
2013-05-29 07:03:00,55.0,34.6,29.32,NW,315,2.6,0.0,46,0.00,CLR,SCT,0.00,WeatherDisplay:10.37,2013-05-29 15:03:00,
2013-05-29 07:08:00,55.2,34.8,29.32,NNW,338,4.6,4.6,46,0.00,CLR,SCT,0.00,WeatherDisplay:10.37,2013-05-29 15:08:00,
2013-05-29 07:13:00,55.2,34.8,29.32,NNW,338,4.6,4.6,46,0.00,CLR,SCT,0.00,WeatherDisplay:10.37,2013-05-29 15:13:00,
2013-05-29 07:18:00,55.4,34.4,29.32,NW,315,2.6,2.6,45,0.00,CLR,SCT,0.00,WeatherDisplay:10.37,2013-05-29 15:18:00,
2013-05-29 07:23:00,55.6,34.6,29.32,NW,315,2.3,0.0,45,0.00,CLR,SCT,0.00,WeatherDisplay:10.37,2013-05-29 15:23:00,
2013-05-29 07:28:00,55.8,34.7,29.32,NW,315,5.8,5.8,45,0.00,CLR,SCT,0.00,WeatherDisplay:10.37,2013-05-29 15:28:00,
2013-05-29 07:33:00,55.6,35.1,29.32,NW,315,3.5,3.5,46,0.00,CLR,SCT,0.00,WeatherDisplay:10.37,2013-05-29 15:33:00,
2013-05-29 07:38:00,55.6,35.1,29.32,NW,315,3.5,3.5,46,0.00,CLR,SCT,0.00,WeatherDisplay:10.37,2013-05-29 15:38:00,
2013-05-29 07:43:00,55.9,35.4,29.32,NW,315,0.0,0.0,46,0.00,CLR,SCT,0.00,WeatherDisplay:10.37,2013-05-29 15:43:00,
2013-05-29 07:48:00,56.1,35.6,29.32,NW,315,2.6,0.0,46,0.00,CLR,SCT,0.00,WeatherDisplay:10.37,2013-05-29 15:48:00,
2013-05-29 07:53:00,56.3,35.8,29.32,NW,315,0.0,0.0,46,0.00,CLR,SCT,0.00,WeatherDisplay:10.37,2013-05-29 15:53:00,
2013-05-29 07:58:00,56.5,35.4,29.32,NW,315,0.0,0.0,45,0.00,CLR,SCT,0.00,WeatherDisplay:10.37,2013-05-29 15:58:00,
2013-05-29 08:03:00,56.3,35.8,29.32,NW,315,0.0,0.0,46,0.00,CLR,SCT,0.00,WeatherDisplay:10.37,2013-05-29 16:03:00,
2013-05-29 08:08:00,56.3,35.2,29.32,NW,315,0.0,0.0,45,0.00,CLR,SCT,0.00,WeatherDisplay:10.37,2013-05-29 16:08:00,
2013-05-29 08:13:00,56.3,35.2,29.32,NW,315,0.0,0.0,45,0.00,CLR,SCT,0.00,WeatherDisplay:10.37,2013-05-29 16:13:00,
2013-05-29 08:18:00,56.7,35.5,29.32,NW,315,0.0,0.0,45,0.00,CLR,SCT,0.00,WeatherDisplay:10.37,2013-05-29 16:18:00,
2013-05-29 08:23:00,56.8,36.3,29.32,NW,315,3.5,0.0,46,0.00,CLR,SCT,0.00,WeatherDisplay:10.37,2013-05-29 16:23:00,
2013-05-29 08:28:00,57.0,36.4,29.32,NNW,338,4.0,4.0,46,0.00,CLR,SCT,0.00,WeatherDisplay:10.37,2013-05-29 16:28:00,
2013-05-29 08:33:00,57.2,36.6,29.32,NNW,338,2.3,2.3,46,0.00,CLR,SCT,0.00,WeatherDisplay:10.37,2013-05-29 16:33:00,
2013-05-29 08:38:00,57.4,36.2,29.32,NNW,338,3.5,3.5,45,0.00,CLR,SCT,0.00,WeatherDisplay:10.37,2013-05-29 16:38:00,
2013-05-29 08:43:00,57.4,36.2,29.32,NNW,338,0.0,0.0,45,0.00,CLR,SCT,0.00,WeatherDisplay:10.37,2013-05-29 16:43:00,
2013-05-29 08:48:00,57.9,36.7,29.32,NNW,338,3.6,0.0,45,0.00,CLR,SCT,0.00,WeatherDisplay:10.37,2013-05-29 16:48:00,
2013-05-29 08:53:00,58.3,37.0,29.32,NNW,338,2.3,0.0,45,0.00,CLR,SCT,0.00,WeatherDisplay:10.37,2013-05-29 16:53:00,
2013-05-29 08:58:00,58.6,37.3,29.32,NNW,338,3.6,3.6,45,0.00,CLR,SCT,0.00,WeatherDisplay:10.37,2013-05-29 16:58:00,
2013-05-29 09:03:00,58.8,37.5,29.32,NNW,338,3.5,0.0,45,0.00,CLR,SCT,0.00,WeatherDisplay:10.37,2013-05-29 17:03:00,
2013-05-29 09:08:00,58.6,37.3,29.32,NNW,338,3.5,3.5,45,0.00,CLR,SCT,0.00,WeatherDisplay:10.37,2013-05-29 17:08:00,
2013-05-29 09:13:00,58.8,37.5,29.32,NW,315,2.3,0.0,45,0.00,CLR,SCT,0.00,WeatherDisplay:10.37,2013-05-29 17:13:00,
2013-05-29 09:18:00,59.2,37.3,29.32,NW,315,3.5,3.5,44,0.00,CLR,SCT,0.00,WeatherDisplay:10.37,2013-05-29 17:18:00,
2013-05-29 09:23:00,59.2,37.3,29.32,NW,315,2.6,0.0,44,0.00,CLR,SCT,0.00,WeatherDisplay:10.37,2013-05-29 17:23:00,
2013-05-29 09:28:00,59.5,37.6,29.32,NW,315,0.0,0.0,44,0.00,CLR,SCT,0.00,WeatherDisplay:10.37,2013-05-29 17:28:00,
2013-05-29 09:33:00,60.6,38.0,29.32,NW,315,0.0,0.0,43,0.00,CLR,SCT,0.00,WeatherDisplay:10.37,2013-05-29 17:33:00,
2013-05-29 09:38:00,61.3,37.4,29.32,NNW,338,4.6,4.6,41,0.00,CLR,SCT,0.00,WeatherDisplay:10.37,2013-05-29 17:38:00,
2013-05-29 09:43:00,61.9,37.3,29.32,NW,315,4.6,4.6,40,0.00,CLR,SCT,0.00,WeatherDisplay:10.37,2013-05-29 17:43:00,
2013-05-29 09:48:00,62.6,37.9,29.32,NNW,338,3.6,3.6,40,0.00,CLR,SCT,0.00,WeatherDisplay:10.37,2013-05-29 17:48:00,
2013-05-29 09:53:00,62.2,37.0,29.32,NW,315,4.6,4.6,39,0.00,CLR,SCT,0.00,WeatherDisplay:10.37,2013-05-29 17:53:00,
2013-05-29 09:58:00,62.4,37.8,29.32,WNW,292,4.0,4.0,40,0.00,CLR,SCT,0.00,WeatherDisplay:10.37,2013-05-29 17:58:00,
2013-05-29 10:03:00,62.6,37.9,29.32,NW,315,4.6,4.6,40,0.00,CLR,SCT,0.00,WeatherDisplay:10.37,2013-05-29 18:03:00,
2013-05-29 10:08:00,62.6,37.9,29.32,NW,315,5.8,5.8,40,0.00,CLR,SCT,0.00,WeatherDisplay:10.37,2013-05-29 18:08:00,
2013-05-29 10:13:00,63.5,38.7,29.32,NW,315,3.5,3.5,40,0.00,CLR,SCT,0.00,WeatherDisplay:10.37,2013-05-29 18:13:00,
2013-05-29 10:18:00,63.9,38.4,29.32,North,0,4.9,4.9,39,0.00,CLR,SCT,0.00,WeatherDisplay:10.37,2013-05-29 18:18:00,
2013-05-29 10:23:00,64.6,38.4,29.32,NNW,338,4.0,4.0,38,0.00,CLR,SCT,0.00,WeatherDisplay:10.37,2013-05-29 18:23:00,
2013-05-29 10:28:00,64.4,38.9,29.32,NW,315,5.8,0.0,39,0.00,CLR,SCT,0.00,WeatherDisplay:10.37,2013-05-29 18:28:00,
2013-05-29 10:33:00,64.9,38.7,29.32,NW,315,2.3,0.0,38,0.00,CLR,SCT,0.00,WeatherDisplay:10.37,2013-05-29 18:33:00,
2013-05-29 10:38:00,65.8,39.5,29.32,NNW,338,3.1,3.1,38,0.00,CLR,SCT,0.00,WeatherDisplay:10.37,2013-05-29 18:38:00,
2013-05-29 10:43:00,66.6,39.5,29.32,North,0,3.5,0.0,37,0.00,CLR,SCT,0.00,WeatherDisplay:10.37,2013-05-29 18:43:00,
2013-05-29 10:48:00,67.6,40.4,29.32,North,0,0.0,0.0,37,0.00,CLR,SCT,0.00,WeatherDisplay:10.37,2013-05-29 18:48:00,
2013-05-29 10:53:00,67.6,39.7,29.32,NW,315,4.0,0.0,36,0.00,CLR,SCT,0.00,WeatherDisplay:10.37,2013-05-29 18:53:00,
2013-05-29 10:58:00,67.8,39.9,29.32,NNW,338,3.5,3.5,36,0.00,CLR,SCT,0.00,WeatherDisplay:10.37,2013-05-29 18:58:00,
2013-05-29 11:03:00,69.3,41.2,29.32,North,0,2.6,2.6,36,0.00,CLR,SCT,0.00,WeatherDisplay:10.37,2013-05-29 19:03:00,
2013-05-29 11:08:00,70.2,41.2,29.32,NNW,338,0.0,0.0,35,0.00,CLR,SCT,0.00,WeatherDisplay:10.37,2013-05-29 19:08:00,
2013-05-29 11:13:00,71.2,41.4,29.32,NNW,338,0.0,0.0,34,0.00,CLR,SCT,0.00,WeatherDisplay:10.37,2013-05-29 19:13:00,
2013-05-29 11:18:00,72.0,41.3,29.32,NNW,338,2.6,0.0,33,0.00,CLR,SCT,0.00,WeatherDisplay:10.37,2013-05-29 19:18:00,
2013-05-29 11:23:00,72.0,42.0,29.32,NW,315,2.6,2.6,34,0.00,CLR,SCT,0.00,WeatherDisplay:10.37,2013-05-29 19:23:00,
2013-05-29 11:28:00,71.6,41.7,29.32,NNW,338,5.4,5.4,34,0.00,CLR,SCT,0.00,WeatherDisplay:10.37,2013-05-29 19:28:00,
2013-05-29 11:33:00,70.9,41.1,29.32,NNW,338,4.0,4.0,34,0.00,CLR,SCT,0.00,WeatherDisplay:10.37,2013-05-29 19:33:00,
2013-05-29 11:38:00,70.7,40.9,29.32,NW,315,5.4,5.4,34,0.00,CLR,SCT,0.00,WeatherDisplay:10.37,2013-05-29 19:38:00,
2013-05-29 11:43:00,70.7,41.7,29.32,NW,315,4.0,4.0,35,0.00,CLR,SCT,0.00,WeatherDisplay:10.37,2013-05-29 19:43:00,
2013-05-29 11:49:00,70.0,41.1,29.32,NW,315,5.4,5.4,35,0.00,CLR,SCT,0.00,WeatherDisplay:10.37,2013-05-29 19:49:00,
2013-05-29 11:54:00,69.6,40.7,29.32,NNW,338,5.4,5.4,35,0.00,CLR,SCT,0.00,WeatherDisplay:10.37,2013-05-29 19:54:00,
2013-05-29 11:59:00,68.4,39.6,29.32,NW,315,5.8,5.8,35,0.00,CLR,SCT,0.00,WeatherDisplay:10.37,2013-05-29 19:59:00,
2013-05-29 12:04:00,67.6,39.7,29.32,NNW,338,5.8,5.8,36,0.00,CLR,SCT,0.00,WeatherDisplay:10.37,2013-05-29 20:04:00,
2013-05-29 12:09:00,68.2,40.2,29.32,NNW,338,5.4,5.4,36,0.00,CLR,SCT,0.00,WeatherDisplay:10.37,2013-05-29 20:09:00,
2013-05-29 12:14:00,67.8,39.9,29.32,NNW,338,5.8,5.8,36,0.00,CLR,SCT,0.00,WeatherDisplay:10.37,2013-05-29 20:14:00,
2013-05-29 12:19:00,68.2,39.5,29.32,WNW,292,5.8,5.8,35,0.00,CLR,SCT,0.00,WeatherDisplay:10.37,2013-05-29 20:19:00,
2013-05-29 12:25:00,68.5,40.5,29.32,NNW,338,4.6,4.6,36,0.00,CLR,SCT,0.00,WeatherDisplay:10.37,2013-05-29 20:25:00,
2013-05-29 12:30:00,68.2,39.5,29.32,NW,315,5.4,5.4,35,0.00,CLR,SCT,0.00,WeatherDisplay:10.37,2013-05-29 20:30:00,
2013-05-29 12:35:00,69.3,40.4,29.32,WNW,292,6.2,6.2,35,0.00,CLR,SCT,0.00,WeatherDisplay:10.37,2013-05-29 20:35:00,
2013-05-29 12:40:00,67.6,39.0,29.32,NNW,338,5.8,5.8,35,0.00,CLR,SCT,0.00,WeatherDisplay:10.37,2013-05-29 20:40:00,
2013-05-29 12:45:00,67.6,39.0,29.32,NNW,338,7.6,7.6,35,0.00,CLR,SCT,0.00,WeatherDisplay:10.37,2013-05-29 20:45:00,
2013-05-29 12:50:00,67.3,38.7,29.32,NNW,338,5.9,5.9,35,0.00,CLR,SCT,0.00,WeatherDisplay:10.37,2013-05-29 20:50:00,
2013-05-29 12:55:00,67.1,38.5,29.32,NW,315,7.6,7.6,35,0.00,CLR,SCT,0.00,WeatherDisplay:10.37,2013-05-29 20:55:00,
2013-05-29 13:00:00,67.1,38.5,29.32,NW,315,8.1,8.1,35,0.00,CLR,SCT,0.00,WeatherDisplay:10.37,2013-05-29 21:00:00,
2013-05-29 13:05:00,67.6,38.3,29.32,NW,315,5.8,5.8,34,0.00,CLR,SCT,0.00,WeatherDisplay:10.37,2013-05-29 21:05:00,
2013-05-29 13:10:00,68.2,38.7,29.32,NW,315,5.8,5.9,34,0.00,CLR,SCT,0.00,WeatherDisplay:10.37,2013-05-29 21:10:00,
2013-05-29 13:15:00,67.6,38.3,29.32,NNW,338,8.1,8.1,34,0.00,CLR,SCT,0.00,WeatherDisplay:10.37,2013-05-29 21:15:00,
2013-05-29 13:20:00,67.8,38.4,29.32,NNW,338,6.9,6.9,34,0.00,CLR,SCT,0.00,WeatherDisplay:10.37,2013-05-29 21:20:00,
2013-05-29 13:25:00,67.6,37.5,29.32,NW,315,8.3,8.3,33,0.00,CLR,SCT,0.00,WeatherDisplay:10.37,2013-05-29 21:25:00,
2013-05-29 13:30:00,67.5,38.1,29.32,NW,315,8.1,8.1,34,0.00,CLR,SCT,0.00,WeatherDisplay:10.37,2013-05-29 21:30:00,
2013-05-29 13:35:00,67.3,37.9,29.32,NNW,338,8.1,8.1,34,0.00,CLR,SCT,0.00,WeatherDisplay:10.37,2013-05-29 21:35:00,
2013-05-29 13:40:00,66.9,37.6,29.32,North,0,8.1,8.1,34,0.00,CLR,SCT,0.00,WeatherDisplay:10.37,2013-05-29 21:40:00,
2013-05-29 13:45:00,67.8,38.4,29.32,North,0,8.1,8.1,34,0.00,CLR,SCT,0.00,WeatherDisplay:10.37,2013-05-29 21:45:00,
2013-05-29 13:50:00,68.2,38.7,29.32,NNW,338,4.0,4.0,34,0.00,CLR,SCT,0.00,WeatherDisplay:10.37,2013-05-29 21:50:00,
2013-05-29 13:55:00,68.2,38.0,29.32,NNW,338,8.1,8.1,33,0.00,CLR,SCT,0.00,WeatherDisplay:10.37,2013-05-29 21:55:00,
2013-05-29 14:00:00,68.0,38.6,29.32,NW,315,8.1,8.1,34,0.00,CLR,SCT,0.00,WeatherDisplay:10.37,2013-05-29 22:00:00,
2013-05-29 14:05:00,68.4,38.1,29.32,NW,315,4.9,4.9,33,0.00,CLR,SCT,0.00,WeatherDisplay:10.37,2013-05-29 22:05:00,
2013-05-29 14:10:00,68.5,39.0,29.32,North,0,8.1,8.1,34,0.00,CLR,SCT,0.00,WeatherDisplay:10.37,2013-05-29 22:10:00,
2013-05-29 14:15:00,68.4,38.9,29.32,WNW,292,8.1,8.1,34,0.00,CLR,SCT,0.00,WeatherDisplay:10.37,2013-05-29 22:15:00,
2013-05-29 14:20:00,68.9,39.4,29.35,NNW,338,8.1,8.1,34,0.00,CLR,SCT,0.00,WeatherDisplay:10.37,2013-05-29 22:20:00,
2013-05-29 14:25:00,68.7,39.2,29.35,NW,315,10.9,10.9,34,0.00,CLR,SCT,0.00,WeatherDisplay:10.37,2013-05-29 22:25:00,
2013-05-29 14:31:00,68.0,38.6,29.35,NW,315,9.2,9.2,34,0.00,CLR,SCT,0.00,WeatherDisplay:10.37,2013-05-29 22:31:00,
2013-05-29 14:35:00,68.5,39.0,29.35,NW,315,8.3,8.3,34,0.00,CLR,SCT,0.00,WeatherDisplay:10.37,2013-05-29 22:35:00,
2013-05-29 14:41:00,68.9,39.4,29.35,WNW,292,5.8,5.8,34,0.00,CLR,SCT,0.00,WeatherDisplay:10.37,2013-05-29 22:41:00,
2013-05-29 14:46:00,68.2,38.7,29.35,North,0,9.2,9.2,34,0.00,CLR,SCT,0.00,WeatherDisplay:10.37,2013-05-29 22:46:00,
2013-05-29 14:51:00,68.0,38.6,29.35,NNW,338,8.1,8.1,34,0.00,CLR,SCT,0.00,WeatherDisplay:10.37,2013-05-29 22:51:00,
2013-05-29 14:56:00,68.0,38.6,29.35,North,0,8.1,8.1,34,0.00,CLR,SCT,0.00,WeatherDisplay:10.37,2013-05-29 22:56:00,
2013-05-29 15:01:00,68.7,38.4,29.35,NW,315,9.2,9.2,33,0.00,CLR,SCT,0.00,WeatherDisplay:10.37,2013-05-29 23:01:00,
2013-05-29 15:06:00,68.0,38.6,29.35,NNW,338,8.1,8.1,34,0.00,CLR,SCT,0.00,WeatherDisplay:10.37,2013-05-29 23:06:00,
2013-05-29 15:11:00,67.1,37.8,29.35,NW,315,8.1,8.1,34,0.00,CLR,SCT,0.00,WeatherDisplay:10.37,2013-05-29 23:11:00,
2013-05-29 15:16:00,67.5,38.1,29.35,North,0,8.1,8.1,34,0.00,CLR,SCT,0.00,WeatherDisplay:10.37,2013-05-29 23:16:00,
2013-05-29 15:21:00,66.7,37.5,29.35,NW,315,8.1,8.1,34,0.00,CLR,SCT,0.00,WeatherDisplay:10.37,2013-05-29 23:21:00,
2013-05-29 15:26:00,66.9,37.6,29.35,North,0,8.1,8.1,34,0.00,CLR,SCT,0.00,WeatherDisplay:10.37,2013-05-29 23:26:00,
2013-05-29 15:31:00,66.9,37.6,29.35,NNW,338,8.1,8.1,34,0.00,CLR,SCT,0.00,WeatherDisplay:10.37,2013-05-29 23:31:00,
2013-05-29 15:36:00,66.7,37.5,29.35,WNW,292,8.1,8.1,34,0.00,CLR,SCT,0.00,WeatherDisplay:10.37,2013-05-29 23:36:00,
2013-05-29 15:41:00,66.7,37.5,29.35,NW,315,9.2,9.2,34,0.00,CLR,SCT,0.00,WeatherDisplay:10.37,2013-05-29 23:41:00,
2013-05-29 15:46:00,67.3,37.9,29.35,WNW,292,5.8,5.8,34,0.00,CLR,SCT,0.00,WeatherDisplay:10.37,2013-05-29 23:46:00,
2013-05-29 15:51:00,67.6,37.5,29.35,North,0,6.9,6.9,33,0.00,CLR,SCT,0.00,WeatherDisplay:10.37,2013-05-29 23:51:00,
2013-05-29 15:56:00,67.6,37.5,29.35,NW,315,3.5,3.5,33,0.00,CLR,SCT,0.00,WeatherDisplay:10.37,2013-05-29 23:56:00,
2013-05-29 16:01:00,67.8,37.6,29.35,NW,315,2.6,2.6,33,0.00,CLR,SCT,0.00,WeatherDisplay:10.37,2013-05-30 00:01:00,
2013-05-29 16:06:00,66.9,36.9,29.35,NW,315,7.1,7.1,33,0.00,CLR,SCT,0.00,WeatherDisplay:10.37,2013-05-30 00:06:00,
2013-05-29 16:11:00,66.9,36.9,29.35,NNW,338,6.9,6.9,33,0.00,CLR,SCT,0.00,WeatherDisplay:10.37,2013-05-30 00:11:00,
2013-05-29 16:16:00,66.9,36.9,29.35,SW,225,4.6,4.6,33,0.00,CLR,SCT,0.00,WeatherDisplay:10.37,2013-05-30 00:16:00,
2013-05-29 16:22:00,66.6,36.5,29.35,NNW,338,9.2,9.2,33,0.00,CLR,SCT,0.00,WeatherDisplay:10.37,2013-05-30 00:22:00,
2013-05-29 16:27:00,65.8,36.7,29.35,NNW,338,6.9,6.9,34,0.00,CLR,SCT,0.00,WeatherDisplay:10.37,2013-05-30 00:27:00,
2013-05-29 16:32:00,66.2,37.0,29.35,NNW,338,5.8,5.8,34,0.00,CLR,SCT,0.00,WeatherDisplay:10.37,2013-05-30 00:32:00,
2013-05-29 16:37:00,66.7,37.5,29.35,NW,315,10.4,10.4,34,0.00,CLR,SCT,0.00,WeatherDisplay:10.37,2013-05-30 00:37:00,
2013-05-29 16:42:00,65.5,37.1,29.35,NW,315,10.0,10.0,35,0.00,CLR,SCT,0.00,WeatherDisplay:10.37,2013-05-30 00:42:00,
2013-05-29 16:47:00,65.1,36.8,29.35,WNW,292,5.8,5.8,35,0.00,CLR,SCT,0.00,WeatherDisplay:10.37,2013-05-30 00:47:00,
2013-05-29 16:52:00,65.5,37.1,29.35,North,0,4.6,4.6,35,0.00,CLR,SCT,0.00,WeatherDisplay:10.37,2013-05-30 00:52:00,
2013-05-29 16:57:00,66.0,37.6,29.35,NNW,338,4.6,4.6,35,0.00,CLR,SCT,0.00,WeatherDisplay:10.37,2013-05-30 00:57:00,
2013-05-29 17:02:00,66.2,37.0,29.35,NW,315,5.9,5.9,34,0.00,CLR,SCT,0.00,WeatherDisplay:10.37,2013-05-30 01:02:00,
2013-05-29 17:07:00,65.8,37.4,29.35,NE,45,4.6,4.6,35,0.00,CLR,SCT,0.00,WeatherDisplay:10.37,2013-05-30 01:07:00,
2013-05-29 17:12:00,65.7,37.2,29.35,NW,315,4.6,4.6,35,0.00,CLR,SCT,0.00,WeatherDisplay:10.37,2013-05-30 01:12:00,
2013-05-29 17:17:00,65.3,36.9,29.35,WSW,248,4.6,4.6,35,0.00,CLR,SCT,0.00,WeatherDisplay:10.37,2013-05-30 01:17:00,
2013-05-29 17:22:00,64.9,36.6,29.35,NW,315,5.8,5.8,35,0.00,CLR,SCT,0.00,WeatherDisplay:10.37,2013-05-30 01:22:00,
2013-05-29 17:27:00,64.8,36.5,29.35,NW,315,5.8,5.9,35,0.00,CLR,SCT,0.00,WeatherDisplay:10.37,2013-05-30 01:27:00,
2013-05-29 17:32:00,65.1,36.8,29.35,NNE,22,4.6,4.6,35,0.00,CLR,SCT,0.00,WeatherDisplay:10.37,2013-05-30 01:32:00,
2013-05-29 17:37:00,64.0,36.5,29.35,North,0,5.9,6.2,36,0.00,CLR,SCT,0.00,WeatherDisplay:10.37,2013-05-30 01:37:00,
2013-05-29 17:42:00,63.9,36.4,29.35,NW,315,8.1,8.1,36,0.00,CLR,SCT,0.00,WeatherDisplay:10.37,2013-05-30 01:42:00,
2013-05-29 17:47:00,64.4,36.8,29.35,WNW,292,5.4,5.4,36,0.00,CLR,SCT,0.00,WeatherDisplay:10.37,2013-05-30 01:47:00,
2013-05-29 17:52:00,64.6,37.0,29.35,NNW,338,6.9,6.9,36,0.00,CLR,SCT,0.00,WeatherDisplay:10.37,2013-05-30 01:52:00,
2013-05-29 17:58:00,64.8,37.2,29.35,NW,315,4.6,4.6,36,0.00,CLR,SCT,0.00,WeatherDisplay:10.37,2013-05-30 01:58:00,
2013-05-29 18:03:00,64.9,37.3,29.35,NW,315,5.8,5.8,36,0.00,CLR,SCT,0.00,WeatherDisplay:10.37,2013-05-30 02:03:00,
2013-05-29 18:08:00,65.5,37.8,29.35,NW,315,8.1,8.1,36,0.00,CLR,SCT,0.00,WeatherDisplay:10.37,2013-05-30 02:08:00,
2013-05-29 18:13:00,64.4,36.8,29.35,NW,315,5.9,5.9,36,0.00,CLR,SCT,0.00,WeatherDisplay:10.37,2013-05-30 02:13:00,
2013-05-29 18:18:00,64.0,37.2,29.35,WSW,248,5.8,5.8,37,0.00,CLR,SCT,0.00,WeatherDisplay:10.37,2013-05-30 02:18:00,
2013-05-29 18:23:00,63.3,36.6,29.35,WSW,248,4.6,4.6,37,0.00,CLR,SCT,0.00,WeatherDisplay:10.37,2013-05-30 02:23:00,
2013-05-29 18:28:00,63.1,36.4,29.35,WSW,248,3.5,3.5,37,0.00,CLR,SCT,0.00,WeatherDisplay:10.37,2013-05-30 02:28:00,
2013-05-29 18:33:00,62.1,36.8,29.35,WSW,248,8.1,8.1,39,0.00,CLR,SCT,0.00,WeatherDisplay:10.37,2013-05-30 02:33:00,
2013-05-29 18:38:00,61.7,37.1,29.35,NW,315,4.6,4.6,40,0.00,CLR,SCT,0.00,WeatherDisplay:10.37,2013-05-30 02:38:00,
2013-05-29 18:43:00,61.5,37.6,29.35,SW,225,2.3,0.0,41,0.00,CLR,SCT,0.00,WeatherDisplay:10.37,2013-05-30 02:43:00,
2013-05-29 18:48:00,61.3,37.4,29.32,WSW,248,3.5,3.6,41,0.00,CLR,SCT,0.00,WeatherDisplay:10.37,2013-05-30 02:48:00,
2013-05-29 18:53:00,61.3,37.4,29.32,WNW,292,6.9,6.9,41,0.00,CLR,SCT,0.00,WeatherDisplay:10.37,2013-05-30 02:53:00,
2013-05-29 18:58:00,61.3,38.0,29.32,WNW,292,5.8,5.8,42,0.00,CLR,SCT,0.00,WeatherDisplay:10.37,2013-05-30 02:58:00,
2013-05-29 19:03:00,61.5,38.2,29.35,NW,315,2.3,2.3,42,0.00,CLR,SCT,0.00,WeatherDisplay:10.37,2013-05-30 03:03:00,
2013-05-29 19:08:00,61.3,38.0,29.35,NNW,338,3.5,3.5,42,0.00,CLR,SCT,0.00,WeatherDisplay:10.37,2013-05-30 03:08:00,
2013-05-29 19:13:00,61.0,37.7,29.35,North,0,3.5,3.5,42,0.00,CLR,SCT,0.00,WeatherDisplay:10.37,2013-05-30 03:13:00,
2013-05-29 19:18:00,60.6,37.4,29.35,WNW,292,6.2,6.2,42,0.00,CLR,SCT,0.00,WeatherDisplay:10.37,2013-05-30 03:18:00,
2013-05-29 19:23:00,60.6,38.0,29.35,WNW,292,5.8,5.8,43,0.00,CLR,SCT,0.00,WeatherDisplay:10.37,2013-05-30 03:23:00,
2013-05-29 19:28:00,61.0,38.3,29.35,NW,315,2.6,2.6,43,0.00,CLR,SCT,0.00,WeatherDisplay:10.37,2013-05-30 03:28:00,
2013-05-29 19:33:00,60.6,38.0,29.35,NNW,338,3.1,0.0,43,0.00,CLR,SCT,0.00,WeatherDisplay:10.37,2013-05-30 03:33:00,
2013-05-29 19:38:00,59.7,37.8,29.35,West,270,3.5,3.5,44,0.00,CLR,SCT,0.00,WeatherDisplay:10.37,2013-05-30 03:38:00,
2013-05-29 19:43:00,59.7,37.8,29.35,North,0,3.5,3.5,44,0.00,CLR,SCT,0.00,WeatherDisplay:10.37,2013-05-30 03:43:00,
2013-05-29 19:48:00,59.4,38.0,29.35,NW,315,3.5,3.5,45,0.00,CLR,SCT,0.00,WeatherDisplay:10.37,2013-05-30 03:48:00,
2013-05-29 19:53:00,59.0,37.7,29.35,NW,315,5.8,5.8,45,0.00,CLR,SCT,0.00,WeatherDisplay:10.37,2013-05-30 03:53:00,
2013-05-29 19:58:00,59.0,38.2,29.35,NNW,338,3.5,3.5,46,0.00,CLR,SCT,0.00,WeatherDisplay:10.37,2013-05-30 03:58:00,
2013-05-29 20:01:00,58.8,38.1,29.35,North,0,4.6,4.6,46,0.00,CLR,SCT,0.00,WeatherDisplay:10.37,2013-05-30 04:01:00,
2013-05-29 20:06:00,58.3,38.1,29.35,West,270,4.0,4.0,47,0.00,CLR,SCT,0.00,WeatherDisplay:10.37,2013-05-30 04:06:00,
2013-05-29 20:11:00,58.5,38.3,29.35,NNW,338,5.8,5.8,47,0.00,CLR,SCT,0.00,WeatherDisplay:10.37,2013-05-30 04:11:00,
2013-05-29 20:16:00,58.6,38.5,29.35,NNW,338,8.1,8.1,47,0.00,CLR,SCT,0.00,WeatherDisplay:10.37,2013-05-30 04:16:00,
2013-05-29 20:22:00,57.9,37.8,29.35,North,0,8.1,8.1,47,0.00,CLR,SCT,0.00,WeatherDisplay:10.37,2013-05-30 04:22:00,
2013-05-29 20:27:00,57.9,38.3,29.35,NW,315,4.6,4.6,48,0.00,CLR,SCT,0.00,WeatherDisplay:10.37,2013-05-30 04:27:00,
2013-05-29 20:32:00,57.7,38.2,29.35,NNW,338,3.5,3.5,48,0.00,CLR,SCT,0.00,WeatherDisplay:10.37,2013-05-30 04:32:00,
2013-05-29 20:37:00,57.9,38.3,29.35,WNW,292,3.5,3.5,48,0.00,CLR,SCT,0.00,WeatherDisplay:10.37,2013-05-30 04:37:00,
2013-05-29 20:42:00,58.3,38.7,29.35,North,0,4.6,4.6,48,0.00,CLR,SCT,0.00,WeatherDisplay:10.37,2013-05-30 04:42:00,
2013-05-29 20:47:00,58.5,38.8,29.35,North,0,0.0,0.0,48,0.00,CLR,SCT,0.00,WeatherDisplay:10.37,2013-05-30 04:47:00,
2013-05-29 20:52:00,58.8,38.6,29.35,NNE,22,0.0,0.0,47,0.00,CLR,SCT,0.00,WeatherDisplay:10.37,2013-05-30 04:52:00,
2013-05-29 20:57:00,59.0,37.7,29.35,NNW,338,4.6,4.6,45,0.00,CLR,SCT,0.00,WeatherDisplay:10.37,2013-05-30 04:57:00,
2013-05-29 21:02:00,59.4,38.0,29.35,SE,135,4.6,0.0,45,0.00,CLR,SCT,0.00,WeatherDisplay:10.37,2013-05-30 05:02:00,
2013-05-29 21:07:00,59.0,37.7,29.35,NE,45,3.5,3.5,45,0.00,CLR,SCT,0.00,WeatherDisplay:10.37,2013-05-30 05:07:00,
2013-05-29 21:12:00,58.8,37.5,29.35,NE,45,2.3,2.3,45,0.00,CLR,SCT,0.00,WeatherDisplay:10.37,2013-05-30 05:12:00,
2013-05-29 21:17:00,58.8,38.1,29.35,NNE,22,2.3,2.3,46,0.00,CLR,SCT,0.00,WeatherDisplay:10.37,2013-05-30 05:17:00,
2013-05-29 21:22:00,58.3,37.6,29.38,WSW,248,2.3,0.0,46,0.00,CLR,SCT,0.00,WeatherDisplay:10.37,2013-05-30 05:22:00,
2013-05-29 21:27:00,57.9,37.2,29.38,SSW,202,2.6,0.0,46,0.00,CLR,SCT,0.00,WeatherDisplay:10.37,2013-05-30 05:27:00,
2013-05-29 21:32:00,57.9,37.2,29.38,NNW,338,3.6,0.0,46,0.00,CLR,SCT,0.00,WeatherDisplay:10.37,2013-05-30 05:32:00,
2013-05-29 21:37:00,57.6,36.9,29.38,North,0,0.0,0.0,46,0.00,CLR,SCT,0.00,WeatherDisplay:10.37,2013-05-30 05:37:00,
2013-05-29 21:42:00,57.6,37.5,29.38,North,0,4.6,4.6,47,0.00,CLR,SCT,0.00,WeatherDisplay:10.37,2013-05-30 05:42:00,
2013-05-29 21:47:00,57.2,37.1,29.38,North,0,3.5,0.0,47,0.00,CLR,SCT,0.00,WeatherDisplay:10.37,2013-05-30 05:47:00,
2013-05-29 21:52:00,57.2,37.1,29.38,SW,225,2.3,0.0,47,0.00,CLR,SCT,0.00,WeatherDisplay:10.37,2013-05-30 05:52:00,
2013-05-29 21:57:00,56.8,36.8,29.38,SSE,158,2.3,0.0,47,0.00,CLR,SCT,0.00,WeatherDisplay:10.37,2013-05-30 05:57:00,
2013-05-29 22:02:00,57.4,37.3,29.38,SSE,158,0.0,0.0,47,0.00,CLR,SCT,0.00,WeatherDisplay:10.37,2013-05-30 06:02:00,
2013-05-29 22:07:00,57.2,37.1,29.38,WSW,248,2.3,0.0,47,0.00,CLR,SCT,0.00,WeatherDisplay:10.37,2013-05-30 06:07:00,
2013-05-29 22:12:00,57.2,37.7,29.38,North,0,3.1,0.0,48,0.00,CLR,SCT,0.00,WeatherDisplay:10.37,2013-05-30 06:12:00,
2013-05-29 22:17:00,57.0,37.5,29.38,North,0,0.0,0.0,48,0.00,CLR,SCT,0.00,WeatherDisplay:10.37,2013-05-30 06:17:00,
2013-05-29 22:22:00,56.7,37.2,29.38,North,0,0.0,0.0,48,0.00,CLR,SCT,0.00,WeatherDisplay:10.37,2013-05-30 06:22:00,
2013-05-29 22:27:00,56.3,36.8,29.38,North,0,3.6,0.0,48,0.00,CLR,SCT,0.00,WeatherDisplay:10.37,2013-05-30 06:27:00,
2013-05-29 22:32:00,55.9,37.0,29.38,North,0,0.0,0.0,49,0.00,CLR,SCT,0.00,WeatherDisplay:10.37,2013-05-30 06:32:00,
2013-05-29 22:37:00,55.4,36.5,29.38,North,0,0.0,0.0,49,0.00,CLR,SCT,0.00,WeatherDisplay:10.37,2013-05-30 06:37:00,
2013-05-29 22:42:00,55.2,36.9,29.38,North,0,0.0,0.0,50,0.00,CLR,SCT,0.00,WeatherDisplay:10.37,2013-05-30 06:42:00,
2013-05-29 22:47:00,54.9,37.1,29.38,North,0,0.0,0.0,51,0.00,CLR,SCT,0.00,WeatherDisplay:10.37,2013-05-30 06:47:00,
2013-05-29 22:52:00,54.5,36.7,29.41,North,0,0.0,0.0,51,0.00,CLR,SCT,0.00,WeatherDisplay:10.37,2013-05-30 06:52:00,
2013-05-29 22:57:00,54.3,36.6,29.41,North,0,0.0,0.0,51,0.00,CLR,SCT,0.00,WeatherDisplay:10.37,2013-05-30 06:57:00,
2013-05-29 23:02:00,54.1,36.4,29.41,North,0,0.0,0.0,51,0.00,CLR,SCT,0.00,WeatherDisplay:10.37,2013-05-30 07:02:00,
2013-05-29 23:07:00,54.1,36.9,29.41,North,0,4.6,0.0,52,0.00,CLR,SCT,0.00,WeatherDisplay:10.37,2013-05-30 07:07:00,
2013-05-29 23:12:00,54.1,36.9,29.41,NNE,22,3.5,0.0,52,0.00,CLR,SCT,0.00,WeatherDisplay:10.37,2013-05-30 07:12:00,
2013-05-29 23:17:00,53.8,36.6,29.41,NNE,22,0.0,0.0,52,0.00,CLR,SCT,0.00,WeatherDisplay:10.37,2013-05-30 07:17:00,
2013-05-29 23:22:00,53.8,37.0,29.41,South,180,2.6,0.0,53,0.00,CLR,SCT,0.00,WeatherDisplay:10.37,2013-05-30 07:22:00,
2013-05-29 23:27:00,54.0,36.7,29.41,South,180,2.3,0.0,52,0.00,CLR,SCT,0.00,WeatherDisplay:10.37,2013-05-30 07:27:00,
2013-05-29 23:32:00,54.0,36.7,29.41,SSW,202,2.3,2.3,52,0.00,CLR,SCT,0.00,WeatherDisplay:10.37,2013-05-30 07:32:00,
2013-05-29 23:37:00,53.8,36.6,29.41,SSW,202,2.3,0.0,52,0.00,CLR,SCT,0.00,WeatherDisplay:10.37,2013-05-30 07:37:00,
2013-05-29 23:42:00,54.0,36.7,29.41,SSW,202,2.6,0.0,52,0.00,CLR,SCT,0.00,WeatherDisplay:10.37,2013-05-30 07:42:00,
2013-05-29 23:47:00,54.0,36.7,29.41,SSW,202,4.6,0.0,52,0.00,CLR,SCT,0.00,WeatherDisplay:10.37,2013-05-30 07:47:00,
2013-05-29 23:52:00,54.0,36.7,29.41,WSW,248,2.3,0.0,52,0.00,CLR,SCT,0.00,WeatherDisplay:10.37,2013-05-30 07:52:00,
2013-05-29 23:57:00,54.0,36.7,29.41,South,180,3.5,3.5,52,0.00,CLR,SCT,0.00,WeatherDisplay:10.37,2013-05-30 07:57:00,